Huvudsida
METAR-TAF:

METAR-TAF

Flygplatser :

Rørviks flygplats. Ryum

Rørvik, Norge

latitud: 64-50N, longitud: 011-09E, höjd: 4 m

Aktuellt väderrapport

Denna rapport gjordes för 34 minuter sedan, klockan 09:20 UTC
Vind 10 kt från sydost
Temperatur -3°C
Fuktighet 58%
Tryck 1028 hPa
Sikt 10 km eller mer
Inga moln under 1 500 m eller inga cumulonimbus

METAR: ENRM 150920Z 13010KT CAVOK M03/M10 Q1028

Tid: 10:54 (09:54 UTC)

Väderprognos

Denna rapport gjordes för 16 timmar och 54 minuter sedan, klockan 17:00 UTC
Prognos gäller från 14 kl. 18 UTC till 14 kl. 21 UTC
Vind 7 kt från ost/sydost
Sikt 10 km eller mer
Inga moln under 1 500 m eller inga cumulonimbus

TAF: ENRM 141700Z 1418/1421 11007KT CAVOK

Aktuella väderrapporter och prognoser från 4000 flygplatser (METAR- och TAF-rapporter).

De tillgängliga stationerna syns som gula och röda prickar på kartan.

För musen över prickarna för att se namnen på stationerna.

Klicka sedan för att få väderrapporter och prognoser.

För att ändra kartan: Klicka på de gröna knapparna med ett svart kors på för att zooma in; den gröna knappen med ett streck på för att zooma ut; eller på de gröna pilarna för angränsande kartor.


METAR-TAF: